Time;durP1;ratioP1;P1;durP2;ratioP2;P2;SDS_P1;SDS_P2;PMS_P1;PMS_P2;Temp;Humidity;BMP_temperature;BMP_pressure;BME280_temperature;BME280_humidity;BME280_pressure;Samples;Min_cycle;Max_cycle;Signal;HPM_P1;HPM_P2
2022/10/29 00:00:53;;;;;;;9.07;4.13;;;15.40;99.90;;;;;;5071851;28;20727;-78
2022/10/29 00:03:21;;;;;;;10.13;4.07;;;15.40;99.90;;;;;;5064991;28;20186;-78
2022/10/29 00:06:02;;;;;;;6.17;3.33;;;15.40;99.90;;;;;;5061359;28;20233;-78
2022/10/29 00:08:32;;;;;;;8.43;3.63;;;15.50;99.90;;;;;;5059346;28;20740;-78
2022/10/29 00:11:19;;;;;;;12.97;3.90;;;15.50;99.90;;;;;;5045087;28;20243;-78
2022/10/29 00:13:47;;;;;;;6.13;3.60;;;15.40;99.90;;;;;;5059468;28;20189;-78
2022/10/29 00:16:22;;;;;;;8.50;3.40;;;15.50;99.90;;;;;;5057831;28;20197;-78
2022/10/29 00:18:49;;;;;;;11.43;3.70;;;15.50;99.90;;;;;;5069325;28;20244;-78
2022/10/29 00:21:20;;;;;;;8.07;3.30;;;15.50;99.90;;;;;;5056450;28;20270;-78
2022/10/29 00:23:47;;;;;;;10.23;3.30;;;15.50;99.90;;;;;;5059997;28;20190;-78
2022/10/29 00:26:14;;;;;;;9.67;3.50;;;15.40;99.90;;;;;;5056300;28;20255;-78
2022/10/29 00:28:42;;;;;;;7.83;4.03;;;15.40;99.90;;;;;;5055375;28;20187;-78
2022/10/29 00:31:14;;;;;;;7.40;3.70;;;15.30;99.90;;;;;;5064408;28;20197;-78
2022/10/29 00:33:42;;;;;;;12.13;3.43;;;15.30;99.90;;;;;;5078943;28;20292;-78
2022/10/29 00:36:15;;;;;;;9.17;3.50;;;15.30;99.90;;;;;;5063873;28;20190;-78
2022/10/29 00:38:44;;;;;;;5.40;3.10;;;15.30;99.90;;;;;;5083405;28;20237;-78
2022/10/29 00:41:16;;;;;;;10.63;3.97;;;15.40;99.90;;;;;;5066158;28;20730;-78
2022/10/29 00:44:21;;;;;;;7.63;3.20;;;15.40;99.90;;;;;;5073507;28;20670;-78
2022/10/29 00:47:04;;;;;;;5.73;3.30;;;15.40;99.90;;;;;;5071696;28;20582;-78
2022/10/29 00:49:34;;;;;;;10.13;3.53;;;15.40;99.90;;;;;;5076209;28;20269;-78
2022/10/29 00:52:04;;;;;;;7.20;3.40;;;15.40;99.90;;;;;;5065836;28;20190;-78
2022/10/29 00:54:34;;;;;;;7.27;3.00;;;15.40;99.90;;;;;;5059242;28;20182;-78
2022/10/29 00:57:11;;;;;;;8.47;3.30;;;15.40;99.90;;;;;;5070560;28;20190;-78
2022/10/29 00:59:38;;;;;;;9.63;3.93;;;15.50;99.90;;;;;;5057733;28;20202;-78
2022/10/29 01:02:05;;;;;;;7.87;3.53;;;15.50;99.90;;;;;;5056793;28;20194;-78
2022/10/29 01:04:32;;;;;;;6.30;3.40;;;15.50;99.90;;;;;;5068684;28;20183;-78
2022/10/29 01:07:00;;;;;;;6.73;3.30;;;15.50;99.90;;;;;;5068420;28;20209;-78
2022/10/29 01:09:27;;;;;;;8.77;3.43;;;15.50;99.90;;;;;;5066604;28;20171;-79
2022/10/29 01:12:43;;;;;;;9.70;3.70;;;15.50;99.90;;;;;;5046567;28;20646;-78
2022/10/29 01:15:28;;;;;;;7.27;3.50;;;15.50;99.90;;;;;;5061513;28;20265;-78
2022/10/29 01:18:41;;;;;;;8.23;3.40;;;15.60;99.90;;;;;;5081888;28;20206;-78
2022/10/29 01:21:44;;;;;;;6.77;3.37;;;15.70;99.90;;;;;;5006788;28;20262;-78
2022/10/29 01:24:53;;;;;;;13.43;3.57;;;15.70;99.90;;;;;;4998589;28;20275;-78
2022/10/29 01:27:48;;;;;;;6.03;3.23;;;15.70;99.90;;;;;;5030311;28;20198;-78
2022/10/29 01:30:36;;;;;;;7.10;3.30;;;15.80;99.90;;;;;;5073027;28;20186;-78
2022/10/29 01:33:24;;;;;;;6.67;3.30;;;15.80;99.90;;;;;;5051500;28;20182;-78
2022/10/29 01:36:10;;;;;;;7.90;3.70;;;15.70;99.90;;;;;;5042183;28;20190;-78
2022/10/29 01:38:58;;;;;;;5.90;3.27;;;15.70;99.90;;;;;;5053080;28;20769;-78
2022/10/29 01:41:48;;;;;;;9.83;4.00;;;15.60;99.90;;;;;;5059878;28;20328;-78
2022/10/29 01:44:28;;;;;;;9.13;3.50;;;15.60;99.90;;;;;;5043186;28;20262;-78
2022/10/29 01:47:01;;;;;;;7.77;3.87;;;15.60;99.90;;;;;;5038111;28;20277;-78
2022/10/29 01:49:42;;;;;;;11.80;3.70;;;15.60;99.90;;;;;;5062950;28;20186;-78
2022/10/29 01:52:14;;;;;;;6.33;3.33;;;15.60;99.90;;;;;;5087002;28;20182;-78
2022/10/29 01:54:46;;;;;;;8.03;3.70;;;15.60;99.90;;;;;;5059576;28;20193;-78
2022/10/29 01:57:34;;;;;;;10.10;3.37;;;15.60;99.90;;;;;;5069359;28;20186;-78
2022/10/29 02:00:20;;;;;;;6.27;3.10;;;15.50;99.90;;;;;;5066748;28;20194;-78
2022/10/29 02:03:14;;;;;;;9.50;3.20;;;15.50;99.90;;;;;;5049024;28;20182;-78
2022/10/29 02:06:07;;;;;;;6.67;3.20;;;15.50;99.90;;;;;;5061127;28;20183;-78
2022/10/29 02:09:01;;;;;;;8.53;3.47;;;15.50;99.90;;;;;;5073240;28;20194;-78
2022/10/29 02:11:57;;;;;;;8.73;3.30;;;15.50;99.90;;;;;;5056127;28;20200;-78
2022/10/29 02:14:24;;;;;;;7.23;3.23;;;15.50;99.90;;;;;;5059941;28;20198;-78
2022/10/29 02:16:53;;;;;;;6.83;3.07;;;15.50;99.90;;;;;;5068023;28;20175;-78
2022/10/29 02:19:19;;;;;;;7.37;3.30;;;15.50;99.90;;;;;;5042912;28;20764;-78
2022/10/29 02:21:46;;;;;;;5.57;3.30;;;15.50;99.90;;;;;;5045255;28;20277;-78
2022/10/29 02:24:13;;;;;;;7.10;3.13;;;15.50;99.90;;;;;;5083171;28;20709;-78
2022/10/29 02:26:39;;;;;;;11.17;3.20;;;15.50;99.90;;;;;;5088646;28;20927;-77
2022/10/29 02:29:05;;;;;;;5.83;3.40;;;15.50;99.90;;;;;;5056483;28;20252;-78
2022/10/29 02:31:32;;;;;;;7.43;3.43;;;15.50;99.90;;;;;;5063097;28;20855;-78
2022/10/29 02:33:58;;;;;;;7.33;3.43;;;15.40;99.90;;;;;;5051999;28;20563;-78
2022/10/29 02:36:24;;;;;;;5.67;3.10;;;15.40;99.90;;;;;;5053982;28;20192;-78
2022/10/29 02:38:51;;;;;;;7.13;3.17;;;15.40;99.90;;;;;;5086280;28;20209;-78
2022/10/29 02:41:17;;;;;;;6.97;2.97;;;15.40;99.90;;;;;;5076988;28;20193;-78
2022/10/29 02:43:44;;;;;;;10.63;3.50;;;15.30;99.90;;;;;;5062106;28;20201;-78
2022/10/29 02:46:17;;;;;;;10.40;3.30;;;15.30;99.90;;;;;;5069111;28;20723;-78
2022/10/29 02:48:45;;;;;;;7.90;3.50;;;15.30;99.90;;;;;;5059207;28;20636;-78
2022/10/29 02:51:12;;;;;;;8.53;3.57;;;15.30;99.90;;;;;;5038010;28;20183;-78
2022/10/29 02:53:39;;;;;;;4.67;3.27;;;15.20;99.90;;;;;;5070380;28;20209;-78
2022/10/29 02:56:06;;;;;;;8.37;3.40;;;15.20;99.90;;;;;;5053411;28;20242;-78
2022/10/29 02:58:33;;;;;;;8.87;3.07;;;15.20;99.90;;;;;;5083423;28;20202;-78
2022/10/29 03:01:00;;;;;;;6.87;3.40;;;15.30;99.90;;;;;;5063472;28;20197;-78
2022/10/29 03:03:26;;;;;;;6.73;3.50;;;15.30;99.90;;;;;;5074208;28;20295;-78
2022/10/29 03:05:53;;;;;;;11.47;3.57;;;15.20;99.90;;;;;;5053371;28;20610;-78
2022/10/29 03:08:20;;;;;;;9.10;3.40;;;15.20;99.90;;;;;;5077703;28;20620;-78
2022/10/29 03:10:46;;;;;;;6.40;3.50;;;15.20;99.90;;;;;;5066515;28;20725;-78
2022/10/29 03:13:13;;;;;;;5.53;3.10;;;15.10;99.90;;;;;;5069490;28;20261;-78
2022/10/29 03:15:44;;;;;;;8.23;3.30;;;15.10;99.90;;;;;;5066944;28;20182;-78
2022/10/29 03:18:11;;;;;;;9.67;3.40;;;15.10;99.90;;;;;;5087830;28;20212;-78
2022/10/29 03:20:38;;;;;;;5.23;3.20;;;15.10;99.90;;;;;;5056411;28;20210;-78
2022/10/29 03:23:04;;;;;;;8.70;3.10;;;15.10;99.90;;;;;;5066662;28;20216;-78
2022/10/29 03:25:31;;;;;;;7.73;3.40;;;15.10;99.90;;;;;;5052074;28;20189;-78
2022/10/29 03:27:57;;;;;;;8.07;3.10;;;15.10;99.90;;;;;;5094559;28;20189;-78
2022/10/29 03:30:24;;;;;;;8.73;3.07;;;15.10;99.90;;;;;;5051665;28;20197;-78
2022/10/29 03:32:50;;;;;;;9.30;3.60;;;15.10;99.90;;;;;;5081483;28;20272;-78
2022/10/29 03:35:16;;;;;;;7.00;3.00;;;15.10;99.90;;;;;;5068998;28;20225;-78
2022/10/29 03:37:43;;;;;;;7.93;3.27;;;15.10;99.90;;;;;;5067371;28;20222;-78
2022/10/29 03:40:10;;;;;;;7.90;2.80;;;15.10;99.90;;;;;;5079856;28;20197;-78
2022/10/29 03:42:38;;;;;;;5.40;2.93;;;15.10;99.90;;;;;;5088034;28;20193;-78
2022/10/29 03:45:07;;;;;;;11.07;3.50;;;15.10;99.90;;;;;;5073219;28;20190;-78
2022/10/29 03:47:33;;;;;;;9.60;3.30;;;15.10;99.90;;;;;;5045606;28;20194;-78
2022/10/29 03:49:59;;;;;;;7.07;3.30;;;15.10;99.90;;;;;;5070308;28;20273;-78
2022/10/29 03:52:27;;;;;;;11.67;3.97;;;15.10;99.90;;;;;;5051265;28;20732;-78
2022/10/29 03:54:54;;;;;;;7.27;3.10;;;15.00;99.90;;;;;;5078356;28;20190;-78
2022/10/29 03:57:20;;;;;;;7.97;3.07;;;15.00;99.90;;;;;;5066469;28;20190;-78
2022/10/29 03:59:47;;;;;;;7.20;3.57;;;15.00;99.90;;;;;;5081218;28;20269;-78
2022/10/29 04:02:16;;;;;;;3.93;2.63;;;15.10;99.90;;;;;;5063502;28;20245;-78
2022/10/29 04:04:43;;;;;;;9.20;3.47;;;15.10;99.90;;;;;;5066128;28;20643;-78
2022/10/29 04:07:11;;;;;;;4.93;2.93;;;15.10;99.90;;;;;;5079691;28;20198;-78
2022/10/29 04:09:37;;;;;;;9.00;3.73;;;15.10;99.90;;;;;;5073057;28;20198;-78
2022/10/29 04:12:04;;;;;;;8.27;3.43;;;15.10;99.90;;;;;;5050184;28;20193;-78
2022/10/29 04:14:30;;;;;;;4.67;3.20;;;15.00;99.90;;;;;;5064245;28;20235;-78
2022/10/29 04:16:57;;;;;;;8.23;3.30;;;15.00;99.90;;;;;;5069095;28;20189;-78
2022/10/29 04:19:24;;;;;;;10.03;3.10;;;15.00;99.90;;;;;;5051817;28;20209;-78
2022/10/29 04:21:50;;;;;;;11.40;3.40;;;15.00;99.90;;;;;;5069613;28;20252;-77
2022/10/29 04:24:16;;;;;;;5.60;3.03;;;15.00;99.90;;;;;;5061390;28;20251;-78
2022/10/29 04:26:45;;;;;;;11.40;3.50;;;15.10;99.90;;;;;;5048291;28;20786;-78
2022/10/29 04:29:11;;;;;;;9.50;2.93;;;15.10;99.90;;;;;;5060864;28;20224;-78
2022/10/29 04:31:39;;;;;;;7.20;3.07;;;15.00;99.90;;;;;;5059792;28;20218;-78
2022/10/29 04:34:05;;;;;;;8.80;3.50;;;15.10;99.90;;;;;;5048675;28;20182;-78
2022/10/29 04:36:32;;;;;;;10.80;3.20;;;15.10;99.90;;;;;;5065481;28;20689;-78
2022/10/29 04:38:58;;;;;;;9.33;3.47;;;15.10;99.90;;;;;;5070582;28;20826;-78
2022/10/29 04:41:25;;;;;;;6.17;3.13;;;15.10;99.90;;;;;;5062576;28;20194;-78
2022/10/29 04:43:51;;;;;;;8.23;3.93;;;15.10;99.90;;;;;;5061829;28;20221;-78
2022/10/29 04:46:18;;;;;;;6.10;3.10;;;15.10;99.90;;;;;;5070631;28;20190;-78
2022/10/29 04:48:45;;;;;;;5.23;3.10;;;15.20;99.90;;;;;;5075051;28;20360;-78
2022/10/29 04:51:37;;;;;;;5.40;3.13;;;15.20;99.90;;;;;;5080402;28;20576;-77
2022/10/29 04:54:04;;;;;;;7.87;3.10;;;15.30;99.90;;;;;;5060661;28;20679;-78
2022/10/29 04:56:30;;;;;;;6.63;3.50;;;15.30;99.90;;;;;;5063188;28;20186;-78
2022/10/29 04:58:58;;;;;;;7.20;3.33;;;15.30;99.90;;;;;;5066708;28;20715;-78
2022/10/29 05:01:25;;;;;;;7.40;3.10;;;15.30;99.90;;;;;;5059684;28;20695;-78
2022/10/29 05:03:53;;;;;;;7.00;3.40;;;15.30;99.90;;;;;;5064670;28;20190;-78
2022/10/29 05:06:20;;;;;;;5.90;3.00;;;15.30;99.90;;;;;;5086812;28;20234;-79
2022/10/29 05:08:47;;;;;;;6.70;3.00;;;15.30;99.90;;;;;;5070207;28;20186;-78
2022/10/29 05:11:14;;;;;;;6.80;3.00;;;15.30;99.90;;;;;;5055182;28;20276;-78
2022/10/29 05:13:40;;;;;;;8.20;3.33;;;15.30;99.90;;;;;;5057122;28;20213;-78
2022/10/29 05:16:07;;;;;;;8.43;3.03;;;15.30;99.90;;;;;;5065528;28;20183;-78
2022/10/29 05:18:36;;;;;;;7.17;3.03;;;15.30;99.90;;;;;;5044900;28;20214;-78
2022/10/29 05:21:02;;;;;;;5.50;2.63;;;15.30;99.90;;;;;;5085430;28;20191;-78
2022/10/29 05:23:29;;;;;;;8.07;3.10;;;15.40;99.90;;;;;;5070158;28;20244;-78
2022/10/29 05:25:56;;;;;;;8.83;3.20;;;15.40;99.90;;;;;;5047752;28;20187;-78
2022/10/29 05:28:23;;;;;;;6.63;2.97;;;15.50;99.90;;;;;;5072512;28;20189;-78
2022/10/29 05:30:52;;;;;;;8.30;3.60;;;15.60;99.90;;;;;;5069889;28;20186;-78
2022/10/29 05:33:22;;;;;;;6.13;2.93;;;15.80;99.90;;;;;;5066901;28;20182;-78
2022/10/29 05:35:50;;;;;;;7.63;3.30;;;15.80;99.90;;;;;;5051414;28;20195;-79
2022/10/29 05:38:17;;;;;;;4.97;2.93;;;15.90;99.90;;;;;;5084523;28;20206;-78
2022/10/29 05:40:44;;;;;;;5.73;3.10;;;16.00;99.90;;;;;;5067800;28;20182;-78
2022/10/29 05:43:12;;;;;;;7.30;2.80;;;16.10;99.90;;;;;;5071340;28;20232;-78
2022/10/29 05:45:40;;;;;;;5.10;2.73;;;16.10;99.90;;;;;;5064570;28;20190;-78
2022/10/29 05:48:07;;;;;;;12.30;3.10;;;16.20;99.90;;;;;;5087334;28;20308;-78
2022/10/29 05:50:33;;;;;;;8.97;3.30;;;16.20;99.90;;;;;;5068131;28;20178;-78
2022/10/29 05:53:04;;;;;;;5.00;3.13;;;16.20;99.90;;;;;;5051392;28;20213;-78
2022/10/29 05:55:34;;;;;;;7.33;2.80;;;16.20;99.90;;;;;;5083017;28;20194;-78
2022/10/29 05:58:12;;;;;;;5.47;2.90;;;16.30;99.90;;;;;;5068499;28;20697;-78
2022/10/29 06:00:43;;;;;;;6.27;2.80;;;16.40;99.90;;;;;;5069125;28;20195;-78
2022/10/29 06:03:21;;;;;;;5.33;2.80;;;16.50;99.90;;;;;;5069361;28;20194;-78
2022/10/29 06:05:49;;;;;;;4.70;2.83;;;16.60;99.90;;;;;;5057178;28;20236;-78
2022/10/29 06:08:16;;;;;;;5.23;2.70;;;16.70;99.90;;;;;;5068736;28;20222;-78
2022/10/29 06:10:42;;;;;;;5.73;3.40;;;16.70;99.90;;;;;;5065893;28;20193;-78
2022/10/29 06:13:16;;;;;;;12.43;3.03;;;16.80;99.90;;;;;;5080123;28;20190;-78
2022/10/29 06:15:44;;;;;;;7.43;2.67;;;16.80;99.90;;;;;;5068433;28;20981;-79
2022/10/29 06:18:11;;;;;;;6.17;2.90;;;16.90;99.90;;;;;;5065096;28;20243;-79
2022/10/29 06:20:38;;;;;;;5.93;2.97;;;16.90;99.90;;;;;;5055389;28;20601;-79
2022/10/29 06:23:06;;;;;;;6.83;3.07;;;17.00;99.90;;;;;;5053631;28;20182;-79
2022/10/29 06:25:33;;;;;;;7.23;2.77;;;17.00;99.90;;;;;;5051548;28;20590;-79
2022/10/29 06:28:14;;;;;;;9.73;3.27;;;17.10;99.90;;;;;;5069152;28;20301;-79
2022/10/29 06:30:47;;;;;;;5.63;2.63;;;17.10;99.90;;;;;;5049798;28;20248;-79
2022/10/29 06:33:13;;;;;;;8.53;2.80;;;17.10;99.90;;;;;;5074967;28;20896;-79
2022/10/29 06:35:42;;;;;;;5.87;2.67;;;17.20;99.90;;;;;;5055331;28;20274;-79
2022/10/29 06:38:08;;;;;;;6.00;2.80;;;17.30;99.90;;;;;;5049692;28;20206;-80
2022/10/29 06:40:34;;;;;;;6.00;3.23;;;17.30;99.90;;;;;;5085411;28;20273;-79
2022/10/29 06:43:04;;;;;;;8.07;3.00;;;17.40;99.90;;;;;;5070455;28;20187;-79
2022/10/29 06:45:32;;;;;;;6.93;2.87;;;17.40;99.90;;;;;;5045443;28;20656;-78
2022/10/29 06:48:01;;;;;;;7.03;2.83;;;17.50;99.90;;;;;;5069272;28;20277;-78
2022/10/29 06:50:28;;;;;;;8.93;3.30;;;17.60;99.90;;;;;;5051668;28;20739;-79
2022/10/29 06:53:01;;;;;;;6.70;2.90;;;17.70;99.90;;;;;;5050712;28;20201;-79
2022/10/29 06:55:28;;;;;;;9.70;3.10;;;17.70;99.90;;;;;;5050474;28;20246;-79
2022/10/29 06:58:04;;;;;;;6.23;2.87;;;17.70;99.90;;;;;;5073430;28;20202;-79
2022/10/29 07:00:33;;;;;;;6.47;2.80;;;17.60;99.90;;;;;;5044289;28;20182;-79
2022/10/29 07:03:00;;;;;;;7.07;2.97;;;17.70;99.90;;;;;;5049226;28;20182;-79
2022/10/29 07:05:27;;;;;;;14.67;3.03;;;17.80;99.90;;;;;;5046090;28;20759;-79
2022/10/29 07:07:59;;;;;;;6.47;3.10;;;17.80;99.90;;;;;;5058918;28;20255;-79
2022/10/29 07:10:28;;;;;;;7.07;2.63;;;17.90;99.90;;;;;;5071193;28;20206;-79
2022/10/29 07:12:55;;;;;;;13.27;2.93;;;18.10;99.90;;;;;;5042797;28;20324;-79
2022/10/29 07:15:22;;;;;;;12.87;3.07;;;18.30;99.90;;;;;;5047362;28;20207;-80
2022/10/29 07:18:00;;;;;;;10.07;3.10;;;18.30;99.90;;;;;;5062441;28;20821;-79
2022/10/29 07:20:29;;;;;;;11.83;2.63;;;18.30;99.90;;;;;;5050083;28;20242;-79
2022/10/29 07:23:05;;;;;;;5.37;2.57;;;18.20;99.90;;;;;;5070184;28;20182;-79
2022/10/29 07:25:32;;;;;;;10.67;3.27;;;18.20;99.90;;;;;;5084248;28;20883;-80
2022/10/29 07:28:15;;;;;;;9.60;3.03;;;18.10;99.90;;;;;;5070251;28;20189;-79
2022/10/29 07:30:43;;;;;;;9.77;2.77;;;18.20;99.90;;;;;;5049618;28;20201;-79
2022/10/29 07:33:11;;;;;;;8.67;2.73;;;18.30;99.90;;;;;;5080661;28;20210;-79
2022/10/29 07:35:39;;;;;;;9.10;2.73;;;18.30;99.90;;;;;;5074967;28;20716;-79
2022/10/29 07:38:07;;;;;;;10.10;3.07;;;18.40;99.90;;;;;;5046299;28;20310;-80
2022/10/29 07:40:34;;;;;;;5.93;2.80;;;18.60;99.90;;;;;;5063628;28;20276;-79
2022/10/29 07:43:01;;;;;;;5.00;2.80;;;18.80;99.90;;;;;;5060733;28;20189;-79
2022/10/29 07:45:28;;;;;;;9.97;2.93;;;18.80;99.90;;;;;;5065988;28;20260;-80
2022/10/29 07:48:04;;;;;;;7.27;3.13;;;18.80;99.90;;;;;;5046878;28;20294;-79
2022/10/29 07:50:31;;;;;;;11.37;3.03;;;18.90;99.90;;;;;;5056066;28;20186;-79
2022/10/29 07:53:03;;;;;;;6.80;3.03;;;18.90;99.90;;;;;;5047925;28;20206;-79
2022/10/29 07:55:29;;;;;;;5.27;2.77;;;18.90;99.90;;;;;;5056235;28;20191;-79
2022/10/29 07:58:03;;;;;;;11.00;2.60;;;18.90;99.90;;;;;;5088117;28;20742;-79
2022/10/29 08:00:32;;;;;;;8.27;3.03;;;19.00;99.90;;;;;;5047718;28;20346;-79
2022/10/29 08:02:58;;;;;;;7.13;3.20;;;19.20;99.90;;;;;;5078132;28;20194;-79
2022/10/29 08:05:27;;;;;;;6.07;2.57;;;19.20;99.90;;;;;;5060994;28;20202;-78
2022/10/29 08:07:55;;;;;;;7.63;3.00;;;19.20;99.90;;;;;;5060173;28;20216;-79
2022/10/29 08:10:24;;;;;;;4.00;2.60;;;19.30;99.90;;;;;;5043235;28;20195;-79
2022/10/29 08:12:55;;;;;;;6.93;2.80;;;19.40;99.90;;;;;;5063736;28;20202;-79
2022/10/29 08:15:22;;;;;;;6.67;2.57;;;19.60;99.90;;;;;;5060275;28;20200;-79
2022/10/29 08:17:50;;;;;;;9.23;3.03;;;19.60;99.90;;;;;;5057053;28;20824;-78
2022/10/29 08:20:17;;;;;;;6.90;3.00;;;19.70;99.90;;;;;;5062262;28;20191;-77
2022/10/29 08:22:43;;;;;;;6.07;2.80;;;19.70;99.90;;;;;;5063321;28;20216;-79
2022/10/29 08:25:12;;;;;;;9.20;2.97;;;19.70;99.90;;;;;;5047858;28;20227;-79
2022/10/29 08:27:39;;;;;;;5.73;2.53;;;19.60;99.90;;;;;;5049878;28;20860;-79
2022/10/29 08:30:13;;;;;;;9.93;3.00;;;19.80;99.90;;;;;;5076211;28;20227;-79
2022/10/29 08:32:46;;;;;;;8.13;2.80;;;20.00;99.90;;;;;;5071203;28;20202;-79
2022/10/29 08:35:13;;;;;;;5.63;2.77;;;19.90;99.90;;;;;;5044810;28;20297;-78
2022/10/29 08:37:44;;;;;;;9.37;2.90;;;20.00;99.90;;;;;;5088586;28;20224;-78
2022/10/29 08:41:14;;;;;;;6.67;3.00;;;20.10;99.90;;;;;;5073272;28;20194;-78
2022/10/29 08:44:01;;;;;;;5.40;3.00;;;20.10;99.90;;;;;;5061224;28;20255;-78
2022/10/29 08:46:53;;;;;;;7.67;2.80;;;20.30;99.90;;;;;;5062832;28;20189;-78
2022/10/29 08:49:41;;;;;;;5.27;2.67;;;20.30;99.90;;;;;;5050357;28;20759;-78
2022/10/29 08:52:26;;;;;;;12.97;2.73;;;20.40;99.90;;;;;;5066536;28;20194;-78
2022/10/29 08:55:21;;;;;;;10.40;3.40;;;20.40;99.90;;;;;;5056063;28;20248;-78
2022/10/29 08:57:58;;;;;;;9.43;2.27;;;20.50;99.90;;;;;;5081561;28;20213;-78
2022/10/29 09:00:37;;;;;;;5.70;2.53;;;20.60;99.90;;;;;;5056201;28;20291;-78
2022/10/29 09:03:12;;;;;;;8.90;3.10;;;20.60;99.90;;;;;;5057730;28;20182;-79
2022/10/29 09:06:34;;;;;;;8.37;3.00;;;20.70;99.90;;;;;;5044663;28;20195;-79
2022/10/29 09:09:25;;;;;;;13.53;2.83;;;20.70;99.90;;;;;;5025232;28;20186;-78
2022/10/29 09:12:43;;;;;;;6.03;2.47;;;20.80;99.90;;;;;;5060095;28;20187;-79
2022/10/29 09:16:01;;;;;;;14.70;3.20;;;20.90;99.90;;;;;;5062828;28;20183;-79
2022/10/29 09:19:04;;;;;;;5.70;2.77;;;21.00;99.90;;;;;;5059794;28;20219;-79
2022/10/29 09:22:27;;;;;;;9.37;2.57;;;21.10;99.90;;;;;;5081888;28;20264;-78
2022/10/29 09:25:15;;;;;;;9.87;3.37;;;21.20;99.90;;;;;;5076266;28;20190;-78
2022/10/29 09:28:21;;;;;;;6.10;2.20;;;21.30;99.90;;;;;;5064076;28;20201;-78
2022/10/29 09:31:40;;;;;;;9.90;2.63;;;21.40;99.90;;;;;;5081427;28;20600;-78
2022/10/29 09:34:20;;;;;;;8.70;2.80;;;21.40;99.90;;;;;;4998217;28;20252;-78
2022/10/29 09:36:47;;;;;;;6.17;2.80;;;21.50;99.90;;;;;;5061052;28;20295;-78
2022/10/29 09:39:32;;;;;;;7.43;3.07;;;21.50;99.90;;;;;;5068139;28;20232;-78
2022/10/29 09:42:01;;;;;;;7.60;2.97;;;21.60;99.90;;;;;;5079311;28;20194;-78
2022/10/29 09:44:56;;;;;;;9.07;3.33;;;21.70;99.90;;;;;;5051432;28;20211;-78
2022/10/29 09:48:12;;;;;;;15.40;2.90;;;21.70;99.90;;;;;;5035066;28;20194;-78
2022/10/29 09:50:53;;;;;;;9.73;2.90;;;21.90;99.90;;;;;;5055021;28;20195;-78
2022/10/29 09:53:19;;;;;;;12.23;3.00;;;22.00;99.90;;;;;;5084536;28;20562;-78
2022/10/29 09:55:52;;;;;;;7.88;2.97;;;22.10;99.90;;;;;;5062161;28;20182;-78
2022/10/29 09:58:26;;;;;;;14.68;5.25;;;22.20;99.90;;;;;;5066587;28;20571;-78
2022/10/29 10:00:57;;;;;;;13.98;8.80;;;22.40;99.90;;;;;;5075487;28;20493;-78
2022/10/29 10:03:36;;;;;;;14.90;7.00;;;22.50;99.90;;;;;;5065093;28;20205;-79
2022/10/29 10:06:07;;;;;;;16.67;6.38;;;22.50;99.90;;;;;;5055023;28;20214;-79
2022/10/29 10:09:04;;;;;;;25.25;7.72;;;22.70;99.90;;;;;;5073295;28;20582;-79
2022/10/29 10:11:42;;;;;;;17.05;7.75;;;23.00;99.90;;;;;;5071477;28;20222;-79
2022/10/29 10:14:25;;;;;;;6.43;4.68;;;23.10;99.90;;;;;;5064391;28;20724;-79
2022/10/29 10:16:59;;;;;;;11.88;4.60;;;23.20;99.90;;;;;;5054927;28;20437;-78
2022/10/29 10:19:31;;;;;;;10.45;3.95;;;23.60;99.90;;;;;;5052909;28;20213;-79
2022/10/29 10:22:04;;;;;;;7.78;3.80;;;24.50;99.90;;;;;;5053002;28;20190;-79
2022/10/29 10:24:36;;;;;;;12.38;3.03;;;27.10;99.90;;;;;;5065351;28;20644;-79
2022/10/29 10:27:17;;;;;;;7.63;2.95;;;28.60;99.90;;;;;;5078978;28;20187;-79
2022/10/29 10:30:04;;;;;;;15.20;3.75;;;29.80;99.90;;;;;;5069704;28;20550;-78
2022/10/29 10:32:31;;;;;;;7.07;3.38;;;29.00;99.90;;;;;;5060087;28;20187;-79
2022/10/29 10:34:57;;;;;;;11.80;3.03;;;27.50;99.90;;;;;;5052195;28;20182;-79
2022/10/29 10:37:24;;;;;;;8.43;3.03;;;26.50;99.90;;;;;;5048438;28;20187;-79
2022/10/29 10:40:04;;;;;;;13.40;3.42;;;25.80;99.90;;;;;;5076418;28;20612;-79
2022/10/29 10:42:41;;;;;;;11.02;3.15;;;25.50;99.90;;;;;;5080736;28;20200;-79
2022/10/29 10:45:31;;;;;;;7.80;2.75;;;25.40;99.90;;;;;;5050570;28;20939;-78
2022/10/29 10:47:58;;;;;;;9.77;3.03;;;25.50;99.90;;;;;;5053174;28;20184;-78
2022/10/29 10:50:35;;;;;;;12.85;3.03;;;25.70;99.90;;;;;;5044164;28;20181;-78
2022/10/29 10:53:24;;;;;;;8.10;3.05;;;25.70;99.90;;;;;;5038330;28;20281;-79
2022/10/29 10:55:58;;;;;;;7.25;2.70;;;26.00;99.90;;;;;;5047272;28;20269;-78
2022/10/29 10:58:39;;;;;;;9.77;2.60;;;27.30;99.90;;;;;;5057302;28;20525;-79
2022/10/29 11:01:21;;;;;;;12.93;3.28;;;25.70;99.90;;;;;;5047469;28;20271;-79
2022/10/29 11:04:15;;;;;;;8.75;3.15;;;24.70;99.90;;;;;;5082416;28;20273;-78
2022/10/29 11:06:48;;;;;;;6.30;2.85;;;24.30;99.90;;;;;;5068462;28;20199;-79
2022/10/29 11:09:49;;;;;;;10.32;2.78;;;24.20;99.90;;;;;;5049219;28;20194;-79
2022/10/29 11:12:29;;;;;;;10.95;2.90;;;24.00;99.90;;;;;;5075786;28;20493;-78
2022/10/29 11:15:09;;;;;;;10.30;3.10;;;24.00;99.90;;;;;;5050726;28;20181;-78
2022/10/29 11:17:54;;;;;;;8.80;2.80;;;24.00;99.90;;;;;;5061563;28;20182;-79
2022/10/29 11:20:27;;;;;;;8.18;2.75;;;24.10;99.90;;;;;;5060851;28;20185;-78
2022/10/29 11:23:23;;;;;;;8.98;2.97;;;23.90;99.90;;;;;;5076482;28;20194;-78
2022/10/29 11:26:09;;;;;;;7.97;2.90;;;24.00;99.90;;;;;;5059251;28;20190;-79
2022/10/29 11:28:53;;;;;;;11.20;3.05;;;24.00;99.90;;;;;;5046491;28;20600;-78
2022/10/29 11:31:48;;;;;;;12.48;2.83;;;24.00;99.90;;;;;;5064152;28;20190;-78
2022/10/29 11:34:26;;;;;;;9.88;2.90;;;24.00;99.90;;;;;;5078112;28;20267;-78
2022/10/29 11:37:24;;;;;;;7.05;2.90;;;24.00;99.90;;;;;;5064455;28;20186;-78
2022/10/29 11:40:23;;;;;;;6.90;2.90;;;24.00;99.90;;;;;;5062704;28;20214;-78
2022/10/29 11:42:50;;;;;;;8.23;2.78;;;24.00;99.90;;;;;;5037549;28;20187;-78
2022/10/29 11:45:57;;;;;;;6.60;2.75;;;24.00;99.90;;;;;;5058595;28;20910;-78
2022/10/29 11:49:17;;;;;;;10.43;3.53;;;23.90;99.90;;;;;;5059271;28;20250;-78
2022/10/29 11:52:35;;;;;;;8.77;3.28;;;23.90;99.90;;;;;;5064532;28;20272;-78
2022/10/29 11:55:29;;;;;;;6.38;2.65;;;23.90;99.90;;;;;;4964372;28;20189;-78
2022/10/29 11:58:03;;;;;;;10.43;3.20;;;23.80;99.90;;;;;;5062402;28;20219;-78
2022/10/29 12:01:07;;;;;;;6.60;3.10;;;23.80;99.90;;;;;;5041686;28;20201;-77
2022/10/29 12:04:08;;;;;;;10.80;3.15;;;23.80;99.90;;;;;;5051826;28;20192;-78
2022/10/29 12:06:53;;;;;;;10.45;2.97;;;23.80;99.90;;;;;;5058685;28;20415;-78
2022/10/29 12:09:56;;;;;;;10.70;3.38;;;23.80;99.90;;;;;;5078937;28;20177;-78
2022/10/29 12:12:51;;;;;;;7.55;2.97;;;23.60;99.90;;;;;;5036899;28;20285;-78
2022/10/29 12:16:18;;;;;;;8.95;2.83;;;23.60;99.90;;;;;;5083765;28;20182;-78
2022/10/29 12:19:03;;;;;;;9.10;3.20;;;23.60;99.90;;;;;;5060035;28;20218;-77
2022/10/29 12:22:03;;;;;;;9.20;3.63;;;23.50;99.90;;;;;;5070891;28;20174;-78
2022/10/29 12:25:33;;;;;;;11.15;2.90;;;23.50;99.90;;;;;;5060102;28;20552;-78
2022/10/29 12:28:38;;;;;;;8.40;3.25;;;23.50;99.90;;;;;;5083969;28;20260;-77
2022/10/29 12:31:54;;;;;;;13.48;2.95;;;23.50;99.90;;;;;;5067933;28;20189;-78
2022/10/29 12:34:41;;;;;;;15.18;2.88;;;23.40;99.90;;;;;;5058589;28;20274;-77
2022/10/29 12:37:44;;;;;;;8.30;3.20;;;23.30;99.90;;;;;;5087023;28;20202;-78
2022/10/29 12:40:24;;;;;;;9.57;3.17;;;23.30;99.90;;;;;;5049247;28;20190;-78
2022/10/29 12:42:51;;;;;;;7.00;3.03;;;23.20;99.90;;;;;;5052208;28;20269;-77
2022/10/29 12:45:53;;;;;;;12.57;3.05;;;23.20;99.90;;;;;;5067976;28;20878;-78
2022/10/29 12:48:32;;;;;;;8.60;2.80;;;23.10;99.90;;;;;;5075743;28;20189;-77
2022/10/29 12:51:27;;;;;;;10.40;3.30;;;23.10;99.90;;;;;;5087152;28;20277;-78
2022/10/29 12:53:56;;;;;;;14.30;3.17;;;23.10;99.90;;;;;;5073757;28;20265;-77
2022/10/29 12:56:27;;;;;;;8.52;3.15;;;23.10;99.90;;;;;;5067165;28;20250;-78
2022/10/29 12:59:17;;;;;;;8.98;3.00;;;23.00;99.90;;;;;;5083906;28;20217;-78
2022/10/29 13:01:44;;;;;;;7.65;3.03;;;22.90;99.90;;;;;;5067529;28;20643;-78
2022/10/29 13:04:34;;;;;;;11.10;3.55;;;22.90;99.90;;;;;;5084264;28;20190;-78
2022/10/29 13:07:17;;;;;;;9.77;3.58;;;22.80;99.90;;;;;;5085216;28;20212;-77
2022/10/29 13:09:45;;;;;;;9.90;2.80;;;22.70;99.90;;;;;;5051043;28;20198;-78
2022/10/29 13:12:51;;;;;;;8.43;2.60;;;22.70;99.90;;;;;;5064819;28;20186;-77
2022/10/29 13:15:23;;;;;;;6.27;2.50;;;22.70;99.90;;;;;;5038624;28;20603;-78
2022/10/29 13:17:52;;;;;;;13.47;3.07;;;22.60;99.90;;;;;;5065563;28;20274;-78
2022/10/29 13:20:29;;;;;;;7.38;2.88;;;22.60;99.90;;;;;;5084138;28;20185;-78
2022/10/29 13:23:01;;;;;;;9.02;2.65;;;22.50;99.90;;;;;;5070157;28;20268;-77
2022/10/29 13:25:35;;;;;;;12.15;2.78;;;22.50;99.90;;;;;;5071704;28;20174;-78
2022/10/29 13:28:08;;;;;;;6.93;2.88;;;22.50;99.90;;;;;;5073081;28;20269;-77
2022/10/29 13:30:48;;;;;;;11.05;2.95;;;22.50;99.90;;;;;;5087686;28;20189;-78
2022/10/29 13:33:28;;;;;;;9.77;3.00;;;22.40;99.90;;;;;;5072124;28;20194;-77